createdAt,value
2018-07-26T00:01:00.348Z,26.70
2018-07-26T00:03:31.826Z,26.70
2018-07-26T00:06:03.459Z,26.70
2018-07-26T00:08:35.059Z,26.60
2018-07-26T00:11:06.576Z,26.50
2018-07-26T00:13:38.054Z,26.60
2018-07-26T00:16:09.530Z,26.60
2018-07-26T00:18:41.158Z,26.50
2018-07-26T00:21:12.665Z,26.50
2018-07-26T00:23:44.370Z,26.40
2018-07-26T00:26:16.031Z,26.40
2018-07-26T00:28:47.791Z,26.40
2018-07-26T00:31:19.316Z,26.40
2018-07-26T00:33:51.150Z,26.30
2018-07-26T00:36:22.984Z,26.30
2018-07-26T00:41:25.797Z,26.30
2018-07-26T00:43:57.421Z,26.30
2018-07-26T00:46:29.046Z,26.30
2018-07-26T00:49:00.659Z,26.20
2018-07-26T00:51:32.401Z,26.20
2018-07-26T00:54:04.140Z,26.20
2018-07-26T00:56:35.723Z,26.20
2018-07-26T00:59:07.327Z,26.20
2018-07-26T01:01:38.929Z,26.20
2018-07-26T01:04:10.807Z,26.30
2018-07-26T01:06:42.273Z,26.20
2018-07-26T01:09:13.941Z,26.20
2018-07-26T01:11:45.418Z,26.20
2018-07-26T01:14:16.960Z,26.20
2018-07-26T01:16:48.414Z,26.10
2018-07-26T01:19:19.876Z,26.10
2018-07-26T01:21:51.605Z,26.10
2018-07-26T01:24:25.064Z,26.00
2018-07-26T01:26:56.611Z,26.00
2018-07-26T01:29:29.467Z,26.00
2018-07-26T01:32:01.113Z,26.00
2018-07-26T01:37:03.606Z,26.90
2018-07-26T01:39:35.046Z,25.90
2018-07-26T01:42:06.654Z,25.90
2018-07-26T01:44:38.107Z,25.90
2018-07-26T01:47:09.765Z,26.00
2018-07-26T01:49:41.741Z,25.80
2018-07-26T01:52:13.279Z,25.90
2018-07-26T01:54:44.706Z,25.80
2018-07-26T01:57:16.602Z,25.80
2018-07-26T01:59:48.205Z,25.80
2018-07-26T02:04:50.723Z,25.80
2018-07-26T02:07:22.496Z,25.80
2018-07-26T02:09:54.364Z,25.80
2018-07-26T02:12:25.947Z,25.80
2018-07-26T02:14:57.563Z,25.80
2018-07-26T02:17:29.143Z,25.80
2018-07-26T02:20:00.618Z,25.80
2018-07-26T02:25:03.768Z,25.80
2018-07-26T02:27:35.270Z,25.80
2018-07-26T02:30:07.383Z,25.80
2018-07-26T02:32:38.843Z,25.80
2018-07-26T02:35:10.337Z,25.80
2018-07-26T02:37:42.145Z,25.70
2018-07-26T02:40:13.918Z,25.70
2018-07-26T02:42:45.748Z,25.70
2018-07-26T02:45:17.109Z,25.70
2018-07-26T02:47:48.588Z,25.60
2018-07-26T02:50:20.063Z,25.60
2018-07-26T02:52:51.646Z,25.60
2018-07-26T02:55:23.397Z,25.60
2018-07-26T02:57:54.981Z,25.60
2018-07-26T03:00:26.744Z,25.50
2018-07-26T03:02:58.235Z,25.60
2018-07-26T03:05:29.742Z,25.60
2018-07-26T03:08:01.152Z,25.50
2018-07-26T03:10:32.981Z,25.50
2018-07-26T03:13:04.771Z,25.80
2018-07-26T03:15:36.434Z,25.50
2018-07-26T03:18:08.381Z,25.50
2018-07-26T03:20:39.888Z,25.50
2018-07-26T03:23:11.751Z,25.50
2018-07-26T03:25:43.625Z,25.40
2018-07-26T03:28:15.029Z,25.40
2018-07-26T03:30:46.797Z,25.40
2018-07-26T03:33:18.632Z,25.40
2018-07-26T03:35:50.100Z,25.30
2018-07-26T03:38:21.552Z,25.30
2018-07-26T03:40:53.425Z,25.30
2018-07-26T03:43:24.892Z,24.40
2018-07-26T03:45:56.334Z,25.20
2018-07-26T03:48:28.089Z,25.20
2018-07-26T03:51:00.315Z,25.20
2018-07-26T03:53:32.068Z,25.20
2018-07-26T03:56:03.593Z,25.20
2018-07-26T03:58:35.029Z,25.10
2018-07-26T04:01:06.468Z,25.10
2018-07-26T04:03:37.923Z,25.10
2018-07-26T04:06:09.771Z,25.10
2018-07-26T04:08:41.262Z,25.10
2018-07-26T04:11:12.732Z,25.20
2018-07-26T04:13:44.253Z,25.10
2018-07-26T04:16:16.049Z,25.10
2018-07-26T04:18:47.634Z,25.10
2018-07-26T04:21:19.830Z,25.10
2018-07-26T04:23:51.089Z,25.00
2018-07-26T04:26:22.548Z,25.10
2018-07-26T04:31:25.392Z,25.10
2018-07-26T04:33:56.853Z,25.10
2018-07-26T04:36:28.432Z,25.10
2018-07-26T04:39:00.273Z,25.10
2018-07-26T04:41:31.798Z,25.10
2018-07-26T04:44:03.525Z,25.10
2018-07-26T04:46:35.384Z,25.10
2018-07-26T04:49:06.839Z,25.10
2018-07-26T04:51:38.961Z,25.10
2018-07-26T04:54:10.968Z,25.10
2018-07-26T04:56:42.840Z,25.20
2018-07-26T04:59:14.286Z,25.20
2018-07-26T05:01:45.699Z,25.20
2018-07-26T05:04:17.354Z,25.20
2018-07-26T05:06:49.304Z,25.30
2018-07-26T05:09:20.908Z,25.30
2018-07-26T05:11:52.565Z,25.30
2018-07-26T05:14:24.121Z,25.30
2018-07-26T05:16:56.005Z,25.40
2018-07-26T05:21:59.084Z,25.50
2018-07-26T05:24:30.520Z,25.40
2018-07-26T05:27:02.443Z,25.50
2018-07-26T05:29:34.075Z,25.60
2018-07-26T05:32:05.841Z,25.60
2018-07-26T05:34:37.458Z,25.60
2018-07-26T05:37:09.137Z,25.70
2018-07-26T05:39:40.759Z,25.70
2018-07-26T05:42:12.317Z,25.80
2018-07-26T05:44:44.037Z,25.80
2018-07-26T05:47:15.551Z,25.90
2018-07-26T05:49:47.251Z,25.90
2018-07-26T05:52:18.912Z,26.00
2018-07-26T05:54:50.417Z,26.10
2018-07-26T05:57:23.923Z,26.10
2018-07-26T05:59:55.437Z,26.20
2018-07-26T06:02:27.710Z,26.20
2018-07-26T06:04:59.538Z,26.30
2018-07-26T06:07:31.016Z,26.30
2018-07-26T06:10:02.734Z,26.40
2018-07-26T06:12:34.373Z,26.60
2018-07-26T06:15:09.776Z,26.60
2018-07-26T06:17:41.892Z,26.60
2018-07-26T06:20:13.472Z,26.70
2018-07-26T06:22:44.934Z,26.80
2018-07-26T06:25:16.445Z,26.90
2018-07-26T06:27:48.163Z,26.90
2018-07-26T06:30:19.730Z,26.90
2018-07-26T06:32:51.302Z,27.10
2018-07-26T06:35:22.806Z,27.20
2018-07-26T06:37:54.791Z,27.30
2018-07-26T06:40:26.663Z,27.40
2018-07-26T06:42:58.570Z,27.60
2018-07-26T06:45:30.311Z,27.60
2018-07-26T06:48:02.042Z,27.70
2018-07-26T06:50:33.666Z,27.70
2018-07-26T06:55:36.345Z,28.00
2018-07-26T07:00:39.505Z,28.20
2018-07-26T07:03:10.921Z,28.40
2018-07-26T07:05:49.529Z,28.50
2018-07-26T07:08:22.130Z,28.60
2018-07-26T07:10:54.370Z,28.80
2018-07-26T07:13:26.736Z,29.00
2018-07-26T07:15:58.895Z,29.10
2018-07-26T07:18:31.150Z,29.20
2018-07-26T07:21:06.746Z,29.40
2018-07-26T07:23:40.179Z,29.60
2018-07-26T07:26:12.438Z,29.70
2018-07-26T07:28:44.665Z,29.80
2018-07-26T07:33:48.659Z,30.00
2018-07-26T07:36:20.715Z,30.20
2018-07-26T07:38:52.733Z,30.30
2018-07-26T07:41:25.315Z,29.50
2018-07-26T07:46:29.541Z,30.70
2018-07-26T07:49:01.800Z,30.90
2018-07-26T07:51:34.558Z,31.00
2018-07-26T07:54:07.230Z,31.10
2018-07-26T07:56:39.893Z,31.20
2018-07-26T07:59:12.068Z,31.40
2018-07-26T08:01:44.002Z,31.50
2018-07-26T08:04:17.340Z,31.50
2018-07-26T08:06:49.789Z,31.70
2018-07-26T08:09:22.058Z,31.80
2018-07-26T08:11:54.066Z,31.80
2018-07-26T08:14:26.102Z,31.90
2018-07-26T08:16:58.261Z,32.00
2018-07-26T08:19:30.798Z,32.00
2018-07-26T08:22:02.957Z,32.10
2018-07-26T08:24:35.099Z,32.10
2018-07-26T08:27:07.342Z,32.20
2018-07-26T08:29:39.846Z,32.20
2018-07-26T08:32:12.164Z,32.20
2018-07-26T08:34:44.192Z,32.30
2018-07-26T08:37:16.638Z,32.30
2018-07-26T08:39:49.109Z,32.30
2018-07-26T08:42:21.738Z,32.40
2018-07-26T08:44:54.198Z,32.40
2018-07-26T08:47:27.081Z,32.50
2018-07-26T08:49:59.250Z,32.60
2018-07-26T08:52:31.727Z,32.60
2018-07-26T08:55:03.947Z,32.70
2018-07-26T08:57:36.322Z,32.70
2018-07-26T09:00:09.021Z,32.80
2018-07-26T09:02:41.170Z,32.90
2018-07-26T09:10:17.265Z,33.10
2018-07-26T09:12:49.369Z,33.20
2018-07-26T09:15:21.893Z,33.30
2018-07-26T09:17:54.134Z,33.30
2018-07-26T09:20:26.861Z,33.50
2018-07-26T09:22:59.096Z,33.50
2018-07-26T09:28:02.960Z,33.70
2018-07-26T09:30:35.085Z,33.80
2018-07-26T09:33:07.204Z,33.90
2018-07-26T09:35:39.297Z,34.00
2018-07-26T09:38:11.475Z,34.10
2018-07-26T09:40:43.526Z,34.20
2018-07-26T09:43:15.703Z,34.40
2018-07-26T09:45:47.835Z,34.50
2018-07-26T09:48:19.929Z,34.60
2018-07-26T09:50:52.042Z,34.70
2018-07-26T09:53:24.470Z,34.90
2018-07-26T09:55:56.602Z,34.30
2018-07-26T10:01:05.477Z,35.40
2018-07-26T10:03:37.585Z,35.50
2018-07-26T10:06:09.911Z,35.70
2018-07-26T10:08:41.995Z,35.80
2018-07-26T10:11:15.371Z,36.00
2018-07-26T10:13:47.393Z,36.20
2018-07-26T10:16:19.621Z,36.30
2018-07-26T10:18:51.915Z,36.50
2018-07-26T10:21:24.039Z,36.70
2018-07-26T10:23:56.110Z,37.00
2018-07-26T10:26:28.241Z,37.20
2018-07-26T10:29:00.298Z,37.50
2018-07-26T10:31:32.961Z,37.80
2018-07-26T10:34:05.601Z,38.20
2018-07-26T10:36:37.582Z,38.40
2018-07-26T10:39:11.473Z,38.80
2018-07-26T10:41:43.536Z,39.10
2018-07-26T10:44:15.757Z,39.40
2018-07-26T10:46:48.166Z,39.70
2018-07-26T10:49:20.572Z,40.10
2018-07-26T10:51:52.613Z,40.30
2018-07-26T10:54:24.639Z,40.60
2018-07-26T10:56:57.487Z,40.80
2018-07-26T10:59:29.641Z,41.00
2018-07-26T11:07:04.455Z,41.80
2018-07-26T11:09:36.592Z,42.10
2018-07-26T11:12:09.270Z,42.20
2018-07-26T11:14:41.273Z,42.30
2018-07-26T11:17:13.334Z,42.40
2018-07-26T11:19:45.274Z,42.60
2018-07-26T11:22:17.326Z,42.80
2018-07-26T11:24:54.365Z,43.00
2018-07-26T11:27:26.823Z,43.20
2018-07-26T11:30:04.991Z,43.50
2018-07-26T11:32:37.356Z,43.80
2018-07-26T11:35:09.571Z,44.10
2018-07-26T11:37:41.440Z,43.20
2018-07-26T11:40:13.783Z,44.50
2018-07-26T11:42:45.619Z,44.50
2018-07-26T11:45:17.570Z,44.70
2018-07-26T11:47:49.629Z,44.80
2018-07-26T11:53:00.026Z,45.00
2018-07-26T11:55:32.062Z,45.00
2018-07-26T11:58:03.932Z,45.10
2018-07-26T12:00:35.766Z,45.30
2018-07-26T12:03:08.221Z,45.50
2018-07-26T12:05:40.156Z,45.50
2018-07-26T12:08:11.928Z,46.70
2018-07-26T12:10:44.137Z,45.10
2018-07-26T12:15:47.692Z,44.60
2018-07-26T12:18:20.687Z,44.30
2018-07-26T12:20:52.785Z,44.10
2018-07-26T12:23:25.867Z,43.80
2018-07-26T12:25:58.028Z,43.40
2018-07-26T12:28:30.107Z,43.10
2018-07-26T12:31:02.125Z,42.90
2018-07-26T12:33:34.285Z,42.60
2018-07-26T12:36:06.424Z,42.40
2018-07-26T12:38:38.861Z,42.30
2018-07-26T12:41:10.990Z,42.40
2018-07-26T12:43:43.520Z,42.40
2018-07-26T12:46:16.085Z,42.30
2018-07-26T12:48:48.236Z,42.20
2018-07-26T12:51:20.335Z,42.00
2018-07-26T12:53:53.202Z,41.80
2018-07-26T12:56:25.510Z,41.60
2018-07-26T12:58:57.816Z,41.40
2018-07-26T13:01:30.036Z,41.30
2018-07-26T13:04:02.645Z,41.10
2018-07-26T13:06:35.040Z,41.10
2018-07-26T13:09:09.994Z,41.20
2018-07-26T13:11:42.486Z,41.30
2018-07-26T13:14:14.648Z,41.30
2018-07-26T13:19:18.108Z,41.70
2018-07-26T13:21:49.962Z,42.00
2018-07-26T13:24:21.901Z,42.30
2018-07-26T13:31:56.479Z,43.60
2018-07-26T13:34:28.335Z,43.90
2018-07-26T13:37:00.447Z,44.10
2018-07-26T13:39:31.947Z,44.20
2018-07-26T13:42:04.327Z,44.30
2018-07-26T13:44:36.210Z,44.50
2018-07-26T13:47:08.373Z,44.50
2018-07-26T13:49:40.378Z,44.50
2018-07-26T13:52:12.259Z,44.50
2018-07-26T13:54:44.234Z,44.40
2018-07-26T13:57:16.359Z,44.40
2018-07-26T13:59:48.255Z,44.20
2018-07-26T14:02:20.638Z,43.90
2018-07-26T14:07:24.612Z,43.40
2018-07-26T14:09:56.935Z,43.10
2018-07-26T14:12:29.320Z,42.90
2018-07-26T14:15:01.701Z,42.60
2018-07-26T14:17:33.701Z,42.40
2018-07-26T14:20:08.990Z,42.20
2018-07-26T14:22:42.150Z,42.10
2018-07-26T14:27:52.553Z,41.70
2018-07-26T14:32:57.730Z,41.40
2018-07-26T14:35:30.077Z,41.40
2018-07-26T14:38:02.417Z,41.20
2018-07-26T14:40:35.186Z,41.00
2018-07-26T14:43:07.502Z,40.90
2018-07-26T14:45:39.798Z,40.90
2018-07-26T14:48:12.395Z,40.70
2018-07-26T14:50:44.944Z,40.60
2018-07-26T14:58:20.623Z,40.40
2018-07-26T15:00:53.056Z,40.30
2018-07-26T15:03:25.551Z,40.30
2018-07-26T15:05:57.847Z,40.20
2018-07-26T15:08:30.342Z,40.20
2018-07-26T15:11:03.269Z,40.10
2018-07-26T15:13:38.510Z,40.20
2018-07-26T15:16:11.857Z,40.40
2018-07-26T15:18:44.457Z,40.30
2018-07-26T15:21:19.641Z,40.30
2018-07-26T15:26:27.771Z,40.30
2018-07-26T15:29:00.610Z,40.40
2018-07-26T15:34:04.804Z,40.30
2018-07-26T15:36:37.218Z,40.30
2018-07-26T15:39:12.315Z,40.30
2018-07-26T15:41:46.452Z,40.40
2018-07-26T15:44:18.696Z,40.50
2018-07-26T15:46:50.918Z,40.60
2018-07-26T15:49:23.540Z,40.20
2018-07-26T15:51:55.745Z,40.60
2018-07-26T15:54:28.164Z,40.60
2018-07-26T15:57:00.411Z,40.60
2018-07-26T15:59:32.653Z,40.60
2018-07-26T16:02:04.644Z,40.70
2018-07-26T16:04:36.790Z,40.80
2018-07-26T16:07:10.091Z,40.80
2018-07-26T16:09:42.826Z,40.70
2018-07-26T16:12:15.048Z,40.60
2018-07-26T16:14:47.377Z,40.60
2018-07-26T16:17:19.614Z,40.40
2018-07-26T16:19:52.066Z,40.30
2018-07-26T16:22:24.820Z,40.20
2018-07-26T16:24:57.410Z,40.10
2018-07-26T16:30:01.933Z,39.80
2018-07-26T16:32:34.173Z,39.60
2018-07-26T16:37:38.510Z,39.40
2018-07-26T16:40:10.858Z,39.20
2018-07-26T16:42:43.289Z,39.10
2018-07-26T16:45:15.632Z,39.10
2018-07-26T16:47:47.927Z,39.00
2018-07-26T16:50:20.432Z,39.10
2018-07-26T16:52:53.576Z,38.90
2018-07-26T16:55:25.664Z,38.80
2018-07-26T16:57:57.952Z,38.70
2018-07-26T17:00:30.304Z,38.80
2018-07-26T17:03:03.035Z,38.60
2018-07-26T17:05:35.479Z,38.40
2018-07-26T17:10:39.392Z,38.30
2018-07-26T17:13:11.670Z,38.20
2018-07-26T17:15:44.110Z,38.20
2018-07-26T17:18:16.301Z,38.20
2018-07-26T17:20:48.998Z,38.10
2018-07-26T17:23:21.853Z,38.00
2018-07-26T17:25:54.263Z,37.90
2018-07-26T17:28:33.008Z,37.90
2018-07-26T17:31:06.314Z,37.70
2018-07-26T17:33:38.476Z,37.60
2018-07-26T17:36:11.941Z,37.60
2018-07-26T17:41:24.007Z,37.40
2018-07-26T17:46:30.934Z,37.20
2018-07-26T17:49:03.419Z,37.20
2018-07-26T17:51:35.875Z,37.00
2018-07-26T17:54:08.349Z,36.90
2018-07-26T17:56:40.456Z,36.90
2018-07-26T17:59:12.925Z,36.80
2018-07-26T18:01:45.141Z,36.70
2018-07-26T18:04:17.354Z,36.60
2018-07-26T18:06:49.797Z,36.50
2018-07-26T18:09:22.143Z,36.50
2018-07-26T18:11:54.176Z,36.40
2018-07-26T18:14:26.244Z,36.30
2018-07-26T18:16:58.850Z,36.20
2018-07-26T18:19:31.232Z,36.20
2018-07-26T18:22:03.848Z,36.30
2018-07-26T18:24:36.096Z,36.00
2018-07-26T18:27:08.225Z,36.00
2018-07-26T18:29:41.636Z,35.80
2018-07-26T18:32:13.807Z,35.80
2018-07-26T18:34:46.108Z,35.80
2018-07-26T18:39:50.678Z,35.70
2018-07-26T18:42:23.473Z,35.60
2018-07-26T18:47:27.957Z,35.50
2018-07-26T18:50:00.453Z,35.40
2018-07-26T18:52:33.006Z,35.30
2018-07-26T18:55:07.405Z,35.10
2018-07-26T18:57:40.559Z,35.20
2018-07-26T19:00:13.886Z,35.10
2018-07-26T19:02:46.422Z,35.00
2018-07-26T19:05:18.936Z,35.10
2018-07-26T19:07:51.577Z,34.60
2018-07-26T19:10:24.439Z,35.00
2018-07-26T19:15:28.846Z,34.90
2018-07-26T19:18:02.074Z,34.80
2018-07-26T19:20:34.362Z,34.70
2018-07-26T19:23:06.500Z,34.60
2018-07-26T19:25:38.741Z,34.50
2018-07-26T19:28:10.977Z,34.50
2018-07-26T19:30:43.254Z,34.40
2018-07-26T19:35:47.278Z,34.20
2018-07-26T19:38:19.365Z,34.10
2018-07-26T19:40:51.977Z,34.00
2018-07-26T19:43:24.109Z,34.00
2018-07-26T19:45:56.688Z,33.90
2018-07-26T19:48:28.732Z,33.80
2018-07-26T19:51:01.189Z,33.70
2018-07-26T19:53:33.399Z,33.60
2018-07-26T19:58:37.313Z,33.50
2018-07-26T20:01:10.154Z,33.40
2018-07-26T20:03:42.631Z,33.30
2018-07-26T20:06:15.359Z,33.30
2018-07-26T20:08:47.798Z,33.20
2018-07-26T20:11:20.107Z,33.10
2018-07-26T20:13:52.194Z,33.10
2018-07-26T20:16:24.338Z,33.00
2018-07-26T20:18:56.608Z,32.90
2018-07-26T20:21:29.190Z,32.80
2018-07-26T20:24:01.548Z,32.70
2018-07-26T20:26:33.782Z,32.70
2018-07-26T20:29:06.526Z,32.60
2018-07-26T20:31:39.943Z,32.50
2018-07-26T20:34:12.655Z,32.40
2018-07-26T20:36:45.149Z,32.40
2018-07-26T20:39:17.708Z,32.30
2018-07-26T20:41:50.240Z,32.20
2018-07-26T20:44:23.380Z,32.20
2018-07-26T20:49:29.879Z,32.10
2018-07-26T20:52:02.762Z,32.10
2018-07-26T20:54:35.381Z,32.10
2018-07-26T20:57:07.597Z,32.00
2018-07-26T20:59:40.552Z,32.00
2018-07-26T21:02:13.234Z,32.00
2018-07-26T21:04:45.980Z,31.90
2018-07-26T21:07:18.318Z,31.90
2018-07-26T21:09:50.997Z,31.90
2018-07-26T21:12:23.484Z,31.80
2018-07-26T21:14:55.651Z,31.80
2018-07-26T21:17:27.843Z,31.80
2018-07-26T21:19:59.943Z,31.70
2018-07-26T21:22:31.826Z,31.70
2018-07-26T21:25:04.184Z,31.70
2018-07-26T21:27:36.217Z,31.70
2018-07-26T21:30:09.429Z,31.60
2018-07-26T21:32:41.489Z,31.50
2018-07-26T21:35:13.546Z,31.50
2018-07-26T21:37:45.624Z,31.40
2018-07-26T21:40:17.873Z,31.40
2018-07-26T21:42:50.297Z,31.40
2018-07-26T21:45:22.483Z,31.40
2018-07-26T21:47:54.512Z,31.30
2018-07-26T21:52:58.574Z,31.20
2018-07-26T21:55:31.265Z,31.20
2018-07-26T21:58:03.896Z,31.20
2018-07-26T22:00:42.522Z,31.10
2018-07-26T22:03:14.693Z,31.10
2018-07-26T22:05:47.808Z,31.10
2018-07-26T22:08:19.949Z,31.00
2018-07-26T22:10:52.136Z,31.00
2018-07-26T22:15:57.820Z,31.00
2018-07-26T22:18:30.088Z,30.90
2018-07-26T22:21:02.584Z,30.90
2018-07-26T22:23:35.289Z,30.90
2018-07-26T22:26:07.673Z,30.90
2018-07-26T22:28:39.830Z,30.80
2018-07-26T22:31:11.979Z,30.80
2018-07-26T22:33:44.319Z,30.70
2018-07-26T22:36:16.475Z,30.70
2018-07-26T22:38:49.033Z,30.70
2018-07-26T22:41:21.160Z,30.70
2018-07-26T22:43:54.612Z,30.70
2018-07-26T22:46:26.834Z,30.70
2018-07-26T22:48:59.418Z,30.60
2018-07-26T22:51:32.024Z,30.60
2018-07-26T22:54:04.821Z,30.60
2018-07-26T22:56:37.244Z,30.60
2018-07-26T22:59:09.809Z,30.40
2018-07-26T23:01:41.997Z,30.50
2018-07-26T23:04:14.112Z,30.50
2018-07-26T23:06:46.343Z,30.50
2018-07-26T23:09:18.697Z,30.40
2018-07-26T23:11:50.861Z,30.50
2018-07-26T23:14:23.065Z,30.40
2018-07-26T23:16:55.469Z,30.40
2018-07-26T23:19:27.802Z,30.30
2018-07-26T23:21:59.927Z,30.30
2018-07-26T23:24:32.057Z,30.30
2018-07-26T23:27:04.342Z,30.30
2018-07-26T23:29:36.513Z,30.20
2018-07-26T23:32:08.579Z,30.30
2018-07-26T23:34:40.898Z,30.80
2018-07-26T23:37:13.114Z,30.20
2018-07-26T23:39:45.287Z,30.20
2018-07-26T23:42:18.274Z,30.20
2018-07-26T23:44:50.688Z,30.20
2018-07-26T23:49:54.614Z,30.10
2018-07-26T23:52:28.884Z,30.10
2018-07-26T23:55:01.258Z,30.10
2018-07-26T23:57:33.870Z,30.00
